sensor_id;sensor_type;location;lat;lon;timestamp;pressure;altitude;pressure_sealevel;temperature
70533;BMP180;58088;51.186;17.130;2022-12-10T00:01:42;99268.20;;;3.84
70533;BMP180;58088;51.186;17.130;2022-12-10T00:04:10;99272.80;;;3.82
70533;BMP180;58088;51.186;17.130;2022-12-10T00:06:37;99264.80;;;3.80
70533;BMP180;58088;51.186;17.130;2022-12-10T00:09:07;99270.40;;;3.80
70533;BMP180;58088;51.186;17.130;2022-12-10T00:11:35;99270.60;;;3.82
70533;BMP180;58088;51.186;17.130;2022-12-10T00:14:01;99263.40;;;3.88
70533;BMP180;58088;51.186;17.130;2022-12-10T00:16:28;99272.40;;;3.90
70533;BMP180;58088;51.186;17.130;2022-12-10T00:18:56;99264.60;;;3.82
70533;BMP180;58088;51.186;17.130;2022-12-10T00:21:29;99267.80;;;3.88
70533;BMP180;58088;51.186;17.130;2022-12-10T00:23:57;99269.20;;;3.88
70533;BMP180;58088;51.186;17.130;2022-12-10T00:26:36;99273.40;;;3.80
70533;BMP180;58088;51.186;17.130;2022-12-10T00:29:06;99273.60;;;3.82
70533;BMP180;58088;51.186;17.130;2022-12-10T00:31:35;99260.80;;;3.80
70533;BMP180;58088;51.186;17.130;2022-12-10T00:34:05;99268.00;;;3.80
70533;BMP180;58088;51.186;17.130;2022-12-10T00:36:45;99266.80;;;3.84
70533;BMP180;58088;51.186;17.130;2022-12-10T00:39:16;99258.40;;;3.80
70533;BMP180;58088;51.186;17.130;2022-12-10T00:41:43;99251.20;;;3.80
70533;BMP180;58088;51.186;17.130;2022-12-10T00:44:10;99264.80;;;3.80
70533;BMP180;58088;51.186;17.130;2022-12-10T00:46:38;99263.20;;;3.80
70533;BMP180;58088;51.186;17.130;2022-12-10T00:49:04;99267.20;;;3.76
70533;BMP180;58088;51.186;17.130;2022-12-10T00:51:31;99268.40;;;3.78
70533;BMP180;58088;51.186;17.130;2022-12-10T00:53:58;99268.40;;;3.76
70533;BMP180;58088;51.186;17.130;2022-12-10T00:56:30;99269.00;;;3.78
70533;BMP180;58088;51.186;17.130;2022-12-10T00:58:56;99266.00;;;3.74
70533;BMP180;58088;51.186;17.130;2022-12-10T01:01:36;99260.80;;;3.70
70533;BMP180;58088;51.186;17.130;2022-12-10T01:04:08;99265.60;;;3.70
70533;BMP180;58088;51.186;17.130;2022-12-10T01:06:42;99260.00;;;3.80
70533;BMP180;58088;51.186;17.130;2022-12-10T01:09:12;99263.20;;;3.80
70533;BMP180;58088;51.186;17.130;2022-12-10T01:11:41;99258.00;;;3.80
70533;BMP180;58088;51.186;17.130;2022-12-10T01:14:13;99256.20;;;3.80
70533;BMP180;58088;51.186;17.130;2022-12-10T01:16:39;99255.40;;;3.80
70533;BMP180;58088;51.186;17.130;2022-12-10T01:19:06;99257.40;;;3.80
70533;BMP180;58088;51.186;17.130;2022-12-10T01:21:34;99265.20;;;3.80
70533;BMP180;58088;51.186;17.130;2022-12-10T01:24:01;99262.80;;;3.80
70533;BMP180;58088;51.186;17.130;2022-12-10T01:26:31;99266.20;;;3.80
70533;BMP180;58088;51.186;17.130;2022-12-10T01:29:03;99265.80;;;3.80
70533;BMP180;58088;51.186;17.130;2022-12-10T01:31:35;99276.00;;;3.80
70533;BMP180;58088;51.186;17.130;2022-12-10T01:34:03;99271.00;;;3.80
70533;BMP180;58088;51.186;17.130;2022-12-10T01:36:36;99269.80;;;3.80
70533;BMP180;58088;51.186;17.130;2022-12-10T01:39:06;99275.20;;;3.80
70533;BMP180;58088;51.186;17.130;2022-12-10T01:41:44;99278.40;;;3.80
70533;BMP180;58088;51.186;17.130;2022-12-10T01:46:46;99278.00;;;3.80
70533;BMP180;58088;51.186;17.130;2022-12-10T01:49:24;99277.20;;;3.80
70533;BMP180;58088;51.186;17.130;2022-12-10T01:51:55;99281.00;;;3.80
70533;BMP180;58088;51.186;17.130;2022-12-10T01:54:28;99280.20;;;3.80
70533;BMP180;58088;51.186;17.130;2022-12-10T01:57:08;99276.80;;;3.80
70533;BMP180;58088;51.186;17.130;2022-12-10T01:59:36;99272.40;;;3.80
70533;BMP180;58088;51.186;17.130;2022-12-10T02:02:52;99271.20;;;3.80
70533;BMP180;58088;51.186;17.130;2022-12-10T02:05:37;99270.40;;;3.80
70533;BMP180;58088;51.186;17.130;2022-12-10T02:08:43;99262.40;;;3.80
70533;BMP180;58088;51.186;17.130;2022-12-10T02:11:22;99265.60;;;3.78
70533;BMP180;58088;51.186;17.130;2022-12-10T02:14:02;99265.40;;;3.74
70533;BMP180;58088;51.186;17.130;2022-12-10T02:16:40;99263.40;;;3.80
70533;BMP180;58088;51.186;17.130;2022-12-10T02:19:28;99262.20;;;3.80
70533;BMP180;58088;51.186;17.130;2022-12-10T02:21:57;99267.60;;;3.80
70533;BMP180;58088;51.186;17.130;2022-12-10T02:24:30;99270.40;;;3.80
70533;BMP180;58088;51.186;17.130;2022-12-10T02:27:11;99269.00;;;3.80
70533;BMP180;58088;51.186;17.130;2022-12-10T02:29:43;99266.80;;;3.80
70533;BMP180;58088;51.186;17.130;2022-12-10T02:32:22;99269.80;;;3.80
70533;BMP180;58088;51.186;17.130;2022-12-10T02:34:55;99268.60;;;3.80
70533;BMP180;58088;51.186;17.130;2022-12-10T02:37:32;99271.00;;;3.80
70533;BMP180;58088;51.186;17.130;2022-12-10T02:40:08;99275.80;;;3.72
70533;BMP180;58088;51.186;17.130;2022-12-10T02:42:42;99279.60;;;3.70
70533;BMP180;58088;51.186;17.130;2022-12-10T02:45:11;99277.60;;;3.70
70533;BMP180;58088;51.186;17.130;2022-12-10T02:47:40;99280.00;;;3.70
70533;BMP180;58088;51.186;17.130;2022-12-10T02:50:09;99286.80;;;3.70
70533;BMP180;58088;51.186;17.130;2022-12-10T02:52:37;99283.60;;;3.70
70533;BMP180;58088;51.186;17.130;2022-12-10T02:55:04;99286.60;;;3.70
70533;BMP180;58088;51.186;17.130;2022-12-10T02:58:06;99285.80;;;3.70
70533;BMP180;58088;51.186;17.130;2022-12-10T03:00:50;99284.80;;;3.70
70533;BMP180;58088;51.186;17.130;2022-12-10T03:03:32;99292.00;;;3.66
70533;BMP180;58088;51.186;17.130;2022-12-10T03:06:18;99291.80;;;3.60
70533;BMP180;58088;51.186;17.130;2022-12-10T03:08:59;99295.60;;;3.60
70533;BMP180;58088;51.186;17.130;2022-12-10T03:11:28;99292.40;;;3.60
70533;BMP180;58088;51.186;17.130;2022-12-10T03:14:10;99291.40;;;3.60
70533;BMP180;58088;51.186;17.130;2022-12-10T03:16:42;99289.60;;;3.60
70533;BMP180;58088;51.186;17.130;2022-12-10T03:19:16;99288.40;;;3.60
70533;BMP180;58088;51.186;17.130;2022-12-10T03:21:47;99292.60;;;3.60
70533;BMP180;58088;51.186;17.130;2022-12-10T03:24:16;99295.80;;;3.70
70533;BMP180;58088;51.186;17.130;2022-12-10T03:26:48;99296.20;;;3.70
70533;BMP180;58088;51.186;17.130;2022-12-10T03:29:26;99293.60;;;3.68
70533;BMP180;58088;51.186;17.130;2022-12-10T03:31:55;99295.80;;;3.70
70533;BMP180;58088;51.186;17.130;2022-12-10T03:34:22;99297.60;;;3.70
70533;BMP180;58088;51.186;17.130;2022-12-10T03:36:50;99295.60;;;3.70
70533;BMP180;58088;51.186;17.130;2022-12-10T03:39:17;99297.20;;;3.70
70533;BMP180;58088;51.186;17.130;2022-12-10T03:41:44;99304.60;;;3.70
70533;BMP180;58088;51.186;17.130;2022-12-10T03:44:10;99307.00;;;3.68
70533;BMP180;58088;51.186;17.130;2022-12-10T03:46:38;99302.00;;;3.66
70533;BMP180;58088;51.186;17.130;2022-12-10T03:49:05;99299.40;;;3.66
70533;BMP180;58088;51.186;17.130;2022-12-10T03:51:31;99303.60;;;3.70
70533;BMP180;58088;51.186;17.130;2022-12-10T03:53:57;99294.60;;;3.70
70533;BMP180;58088;51.186;17.130;2022-12-10T03:56:24;99296.80;;;3.70
70533;BMP180;58088;51.186;17.130;2022-12-10T03:58:50;99296.20;;;3.68
70533;BMP180;58088;51.186;17.130;2022-12-10T04:01:16;99293.00;;;3.70
70533;BMP180;58088;51.186;17.130;2022-12-10T04:03:43;99294.60;;;3.70
70533;BMP180;58088;51.186;17.130;2022-12-10T04:06:17;99297.40;;;3.70
70533;BMP180;58088;51.186;17.130;2022-12-10T04:08:45;99311.40;;;3.70
70533;BMP180;58088;51.186;17.130;2022-12-10T04:11:14;99313.80;;;3.70
70533;BMP180;58088;51.186;17.130;2022-12-10T04:13:42;99319.60;;;3.70
70533;BMP180;58088;51.186;17.130;2022-12-10T04:16:27;99317.20;;;3.70
70533;BMP180;58088;51.186;17.130;2022-12-10T04:18:59;99320.80;;;3.70
70533;BMP180;58088;51.186;17.130;2022-12-10T04:21:27;99317.40;;;3.72
70533;BMP180;58088;51.186;17.130;2022-12-10T04:24:14;99319.80;;;3.74
70533;BMP180;58088;51.186;17.130;2022-12-10T04:27:11;99326.00;;;3.70
70533;BMP180;58088;51.186;17.130;2022-12-10T04:29:38;99324.40;;;3.70
70533;BMP180;58088;51.186;17.130;2022-12-10T04:32:05;99330.00;;;3.70
70533;BMP180;58088;51.186;17.130;2022-12-10T04:34:32;99330.60;;;3.70
70533;BMP180;58088;51.186;17.130;2022-12-10T04:36:59;99328.40;;;3.70
70533;BMP180;58088;51.186;17.130;2022-12-10T04:39:25;99331.00;;;3.70
70533;BMP180;58088;51.186;17.130;2022-12-10T04:41:52;99328.40;;;3.70
70533;BMP180;58088;51.186;17.130;2022-12-10T04:44:19;99332.40;;;3.70
70533;BMP180;58088;51.186;17.130;2022-12-10T04:46:46;99335.80;;;3.60
70533;BMP180;58088;51.186;17.130;2022-12-10T04:49:13;99330.20;;;3.60
70533;BMP180;58088;51.186;17.130;2022-12-10T04:51:40;99330.00;;;3.60
70533;BMP180;58088;51.186;17.130;2022-12-10T04:54:08;99332.20;;;3.60
70533;BMP180;58088;51.186;17.130;2022-12-10T04:56:35;99336.60;;;3.60
70533;BMP180;58088;51.186;17.130;2022-12-10T04:59:03;99338.20;;;3.60
70533;BMP180;58088;51.186;17.130;2022-12-10T05:01:30;99347.00;;;3.60
70533;BMP180;58088;51.186;17.130;2022-12-10T05:04:03;99335.60;;;3.56
70533;BMP180;58088;51.186;17.130;2022-12-10T05:06:30;99344.20;;;3.60
70533;BMP180;58088;51.186;17.130;2022-12-10T05:08:57;99339.40;;;3.60
70533;BMP180;58088;51.186;17.130;2022-12-10T05:11:27;99339.80;;;3.60
70533;BMP180;58088;51.186;17.130;2022-12-10T05:13:55;99344.00;;;3.60
70533;BMP180;58088;51.186;17.130;2022-12-10T05:16:25;99345.80;;;3.60
70533;BMP180;58088;51.186;17.130;2022-12-10T05:18:54;99341.60;;;3.50
70533;BMP180;58088;51.186;17.130;2022-12-10T05:21:22;99336.40;;;3.50
70533;BMP180;58088;51.186;17.130;2022-12-10T05:23:51;99336.80;;;3.50
70533;BMP180;58088;51.186;17.130;2022-12-10T05:26:23;99338.00;;;3.50
70533;BMP180;58088;51.186;17.130;2022-12-10T05:28:55;99347.40;;;3.50
70533;BMP180;58088;51.186;17.130;2022-12-10T05:31:24;99352.00;;;3.50
70533;BMP180;58088;51.186;17.130;2022-12-10T05:33:53;99353.80;;;3.50
70533;BMP180;58088;51.186;17.130;2022-12-10T05:36:25;99359.60;;;3.54
70533;BMP180;58088;51.186;17.130;2022-12-10T05:38:54;99357.20;;;3.56
70533;BMP180;58088;51.186;17.130;2022-12-10T05:41:24;99358.20;;;3.58
70533;BMP180;58088;51.186;17.130;2022-12-10T05:43:54;99358.00;;;3.60
70533;BMP180;58088;51.186;17.130;2022-12-10T05:46:28;99352.20;;;3.60
70533;BMP180;58088;51.186;17.130;2022-12-10T05:48:55;99360.60;;;3.60
70533;BMP180;58088;51.186;17.130;2022-12-10T05:51:29;99360.80;;;3.60
70533;BMP180;58088;51.186;17.130;2022-12-10T05:53:58;99367.00;;;3.60
70533;BMP180;58088;51.186;17.130;2022-12-10T05:56:26;99358.80;;;3.60
70533;BMP180;58088;51.186;17.130;2022-12-10T05:58:58;99358.00;;;3.58
70533;BMP180;58088;51.186;17.130;2022-12-10T06:01:29;99353.20;;;3.50
70533;BMP180;58088;51.186;17.130;2022-12-10T06:03:59;99358.20;;;3.56
70533;BMP180;58088;51.186;17.130;2022-12-10T06:06:30;99357.40;;;3.50
70533;BMP180;58088;51.186;17.130;2022-12-10T06:08:58;99359.20;;;3.50
70533;BMP180;58088;51.186;17.130;2022-12-10T06:11:25;99357.20;;;3.50
70533;BMP180;58088;51.186;17.130;2022-12-10T06:13:54;99364.80;;;3.40
70533;BMP180;58088;51.186;17.130;2022-12-10T06:16:21;99362.40;;;3.40
70533;BMP180;58088;51.186;17.130;2022-12-10T06:18:47;99364.20;;;3.40
70533;BMP180;58088;51.186;17.130;2022-12-10T06:21:15;99368.80;;;3.40
70533;BMP180;58088;51.186;17.130;2022-12-10T06:23:42;99375.80;;;3.40
70533;BMP180;58088;51.186;17.130;2022-12-10T06:26:16;99367.20;;;3.38
70533;BMP180;58088;51.186;17.130;2022-12-10T06:28:46;99364.00;;;3.32
70533;BMP180;58088;51.186;17.130;2022-12-10T06:31:13;99365.40;;;3.30
70533;BMP180;58088;51.186;17.130;2022-12-10T06:33:40;99366.00;;;3.30
70533;BMP180;58088;51.186;17.130;2022-12-10T06:36:10;99363.60;;;3.20
70533;BMP180;58088;51.186;17.130;2022-12-10T06:38:38;99365.40;;;3.20
70533;BMP180;58088;51.186;17.130;2022-12-10T06:41:06;99364.20;;;3.20
70533;BMP180;58088;51.186;17.130;2022-12-10T06:43:33;99362.40;;;3.20
70533;BMP180;58088;51.186;17.130;2022-12-10T06:46:07;99360.60;;;3.20
70533;BMP180;58088;51.186;17.130;2022-12-10T06:48:35;99363.80;;;3.20
70533;BMP180;58088;51.186;17.130;2022-12-10T06:51:04;99363.00;;;3.20
70533;BMP180;58088;51.186;17.130;2022-12-10T06:53:32;99357.40;;;3.20
70533;BMP180;58088;51.186;17.130;2022-12-10T06:55:59;99358.60;;;3.18
70533;BMP180;58088;51.186;17.130;2022-12-10T06:58:30;99363.40;;;3.10
70533;BMP180;58088;51.186;17.130;2022-12-10T07:01:14;99364.20;;;3.10
70533;BMP180;58088;51.186;17.130;2022-12-10T07:03:42;99380.80;;;3.10
70533;BMP180;58088;51.186;17.130;2022-12-10T07:06:11;99378.40;;;3.10
70533;BMP180;58088;51.186;17.130;2022-12-10T07:08:39;99371.40;;;3.10
70533;BMP180;58088;51.186;17.130;2022-12-10T07:11:14;99378.80;;;3.10
70533;BMP180;58088;51.186;17.130;2022-12-10T07:13:41;99384.00;;;3.10
70533;BMP180;58088;51.186;17.130;2022-12-10T07:16:24;99381.00;;;3.10
70533;BMP180;58088;51.186;17.130;2022-12-10T07:18:53;99381.20;;;3.10
70533;BMP180;58088;51.186;17.130;2022-12-10T07:21:33;99387.60;;;3.20
70533;BMP180;58088;51.186;17.130;2022-12-10T07:24:14;99386.60;;;3.20
70533;BMP180;58088;51.186;17.130;2022-12-10T07:26:44;99389.40;;;3.20
70533;BMP180;58088;51.186;17.130;2022-12-10T07:29:20;99386.80;;;3.20
70533;BMP180;58088;51.186;17.130;2022-12-10T07:31:48;99386.80;;;3.20
70533;BMP180;58088;51.186;17.130;2022-12-10T07:34:15;99383.40;;;3.20
70533;BMP180;58088;51.186;17.130;2022-12-10T07:36:42;99392.00;;;3.30
70533;BMP180;58088;51.186;17.130;2022-12-10T07:39:09;99395.20;;;3.30
70533;BMP180;58088;51.186;17.130;2022-12-10T07:41:36;99394.40;;;3.20
70533;BMP180;58088;51.186;17.130;2022-12-10T07:44:04;99390.60;;;3.20
70533;BMP180;58088;51.186;17.130;2022-12-10T07:46:33;99391.60;;;3.20
70533;BMP180;58088;51.186;17.130;2022-12-10T07:49:02;99383.20;;;3.24
70533;BMP180;58088;51.186;17.130;2022-12-10T07:51:30;99383.60;;;3.30
70533;BMP180;58088;51.186;17.130;2022-12-10T07:53:56;99386.20;;;3.30
70533;BMP180;58088;51.186;17.130;2022-12-10T07:56:24;99389.80;;;3.30
70533;BMP180;58088;51.186;17.130;2022-12-10T07:58:52;99388.20;;;3.30
70533;BMP180;58088;51.186;17.130;2022-12-10T08:01:25;99390.80;;;3.38
70533;BMP180;58088;51.186;17.130;2022-12-10T08:03:53;99394.40;;;3.40
70533;BMP180;58088;51.186;17.130;2022-12-10T08:06:23;99397.40;;;3.40
70533;BMP180;58088;51.186;17.130;2022-12-10T08:08:50;99405.40;;;3.40
70533;BMP180;58088;51.186;17.130;2022-12-10T08:11:19;99411.40;;;3.40
70533;BMP180;58088;51.186;17.130;2022-12-10T08:13:46;99412.00;;;3.40
70533;BMP180;58088;51.186;17.130;2022-12-10T08:16:17;99423.20;;;3.40
70533;BMP180;58088;51.186;17.130;2022-12-10T08:18:44;99420.80;;;3.40
70533;BMP180;58088;51.186;17.130;2022-12-10T08:21:24;99422.20;;;3.40
70533;BMP180;58088;51.186;17.130;2022-12-10T08:23:51;99419.40;;;3.42
70533;BMP180;58088;51.186;17.130;2022-12-10T08:26:23;99420.80;;;3.40
70533;BMP180;58088;51.186;17.130;2022-12-10T08:28:50;99426.60;;;3.40
70533;BMP180;58088;51.186;17.130;2022-12-10T08:31:19;99419.00;;;3.40
70533;BMP180;58088;51.186;17.130;2022-12-10T08:33:46;99420.40;;;3.40
70533;BMP180;58088;51.186;17.130;2022-12-10T08:36:15;99422.00;;;3.38
70533;BMP180;58088;51.186;17.130;2022-12-10T08:38:43;99419.20;;;3.34
70533;BMP180;58088;51.186;17.130;2022-12-10T08:41:19;99423.20;;;3.30
70533;BMP180;58088;51.186;17.130;2022-12-10T08:43:47;99424.20;;;3.30
70533;BMP180;58088;51.186;17.130;2022-12-10T08:46:14;99426.40;;;3.30
70533;BMP180;58088;51.186;17.130;2022-12-10T08:48:42;99421.20;;;3.36
70533;BMP180;58088;51.186;17.130;2022-12-10T08:51:11;99432.20;;;3.40
70533;BMP180;58088;51.186;17.130;2022-12-10T08:53:40;99442.80;;;3.40
70533;BMP180;58088;51.186;17.130;2022-12-10T08:56:06;99435.00;;;3.40
70533;BMP180;58088;51.186;17.130;2022-12-10T08:58:33;99433.40;;;3.40
70533;BMP180;58088;51.186;17.130;2022-12-10T09:01:05;99433.60;;;3.40
70533;BMP180;58088;51.186;17.130;2022-12-10T09:03:32;99429.00;;;3.40
70533;BMP180;58088;51.186;17.130;2022-12-10T09:06:04;99434.40;;;3.40
70533;BMP180;58088;51.186;17.130;2022-12-10T09:08:31;99441.80;;;3.40
70533;BMP180;58088;51.186;17.130;2022-12-10T09:10:57;99432.20;;;3.40
70533;BMP180;58088;51.186;17.130;2022-12-10T09:13:23;99427.40;;;3.40
70533;BMP180;58088;51.186;17.130;2022-12-10T09:15:52;99420.40;;;3.40
70533;BMP180;58088;51.186;17.130;2022-12-10T09:18:19;99432.60;;;3.40
70533;BMP180;58088;51.186;17.130;2022-12-10T09:20:45;99426.20;;;3.40
70533;BMP180;58088;51.186;17.130;2022-12-10T09:23:11;99425.60;;;3.40
70533;BMP180;58088;51.186;17.130;2022-12-10T09:25:37;99424.40;;;3.40
70533;BMP180;58088;51.186;17.130;2022-12-10T09:28:04;99419.60;;;3.40
70533;BMP180;58088;51.186;17.130;2022-12-10T09:30:30;99419.00;;;3.42
70533;BMP180;58088;51.186;17.130;2022-12-10T09:32:57;99416.40;;;3.48
70533;BMP180;58088;51.186;17.130;2022-12-10T09:35:23;99420.20;;;3.50
70533;BMP180;58088;51.186;17.130;2022-12-10T09:37:49;99418.40;;;3.50
70533;BMP180;58088;51.186;17.130;2022-12-10T09:40:32;99416.00;;;3.50
70533;BMP180;58088;51.186;17.130;2022-12-10T09:43:17;99413.60;;;3.50
70533;BMP180;58088;51.186;17.130;2022-12-10T09:46:26;99416.20;;;3.60
70533;BMP180;58088;51.186;17.130;2022-12-10T09:51:47;99414.80;;;3.70
70533;BMP180;58088;51.186;17.130;2022-12-10T09:54:58;99421.40;;;3.70
70533;BMP180;58088;51.186;17.130;2022-12-10T09:57:34;99410.80;;;3.70
70533;BMP180;58088;51.186;17.130;2022-12-10T10:00:25;99410.80;;;3.70
70533;BMP180;58088;51.186;17.130;2022-12-10T10:02:57;99409.60;;;3.70
70533;BMP180;58088;51.186;17.130;2022-12-10T10:05:52;99405.60;;;3.70
70533;BMP180;58088;51.186;17.130;2022-12-10T10:08:33;99408.60;;;3.80
70533;BMP180;58088;51.186;17.130;2022-12-10T10:11:01;99400.00;;;3.80
70533;BMP180;58088;51.186;17.130;2022-12-10T10:13:58;99396.60;;;3.80
70533;BMP180;58088;51.186;17.130;2022-12-10T10:16:48;99393.20;;;3.80
70533;BMP180;58088;51.186;17.130;2022-12-10T10:19:21;99383.80;;;3.80
70533;BMP180;58088;51.186;17.130;2022-12-10T10:21:50;99383.00;;;3.80
70533;BMP180;58088;51.186;17.130;2022-12-10T10:24:28;99382.60;;;3.80
70533;BMP180;58088;51.186;17.130;2022-12-10T10:27:12;99387.60;;;3.80
70533;BMP180;58088;51.186;17.130;2022-12-10T10:29:39;99384.60;;;3.80
70533;BMP180;58088;51.186;17.130;2022-12-10T10:32:49;99386.20;;;3.80
70533;BMP180;58088;51.186;17.130;2022-12-10T10:35:42;99374.20;;;3.80
70533;BMP180;58088;51.186;17.130;2022-12-10T10:38:29;99379.60;;;3.80
70533;BMP180;58088;51.186;17.130;2022-12-10T10:41:03;99376.20;;;3.84
70533;BMP180;58088;51.186;17.130;2022-12-10T10:43:43;99373.60;;;3.86
70533;BMP180;58088;51.186;17.130;2022-12-10T10:46:21;99382.20;;;3.80
70533;BMP180;58088;51.186;17.130;2022-12-10T10:48:48;99372.60;;;3.90
70533;BMP180;58088;51.186;17.130;2022-12-10T10:53:51;99376.60;;;3.90
70533;BMP180;58088;51.186;17.130;2022-12-10T10:56:42;99377.40;;;3.90
70533;BMP180;58088;51.186;17.130;2022-12-10T11:01:52;99367.20;;;3.90
70533;BMP180;58088;51.186;17.130;2022-12-10T11:04:38;99362.60;;;3.80
70533;BMP180;58088;51.186;17.130;2022-12-10T11:07:42;99355.60;;;3.80
70533;BMP180;58088;51.186;17.130;2022-12-10T11:10:23;99362.20;;;3.86
70533;BMP180;58088;51.186;17.130;2022-12-10T11:15:35;99371.60;;;3.80
70533;BMP180;58088;51.186;17.130;2022-12-10T11:21:16;99384.80;;;3.80
70533;BMP180;58088;51.186;17.130;2022-12-10T11:23:46;99379.80;;;3.80
70533;BMP180;58088;51.186;17.130;2022-12-10T11:32:31;99386.40;;;3.80
70533;BMP180;58088;51.186;17.130;2022-12-10T11:38:15;99400.20;;;3.90
70533;BMP180;58088;51.186;17.130;2022-12-10T11:41:02;99401.20;;;3.80
70533;BMP180;58088;51.186;17.130;2022-12-10T11:47:27;99395.40;;;3.90
70533;BMP180;58088;51.186;17.130;2022-12-10T11:50:09;99394.80;;;3.90
70533;BMP180;58088;51.186;17.130;2022-12-10T11:53:37;99402.20;;;3.90
70533;BMP180;58088;51.186;17.130;2022-12-10T11:56:35;99409.40;;;3.90
70533;BMP180;58088;51.186;17.130;2022-12-10T12:14:21;99409.20;;;3.80
70533;BMP180;58088;51.186;17.130;2022-12-10T12:17:13;99402.00;;;3.78
70533;BMP180;58088;51.186;17.130;2022-12-10T12:19:50;99398.40;;;3.80
70533;BMP180;58088;51.186;17.130;2022-12-10T12:22:27;99387.40;;;3.80
70533;BMP180;58088;51.186;17.130;2022-12-10T12:25:28;99386.60;;;3.80
70533;BMP180;58088;51.186;17.130;2022-12-10T12:28:14;99394.80;;;3.78
70533;BMP180;58088;51.186;17.130;2022-12-10T12:30:49;99396.20;;;3.74
70533;BMP180;58088;51.186;17.130;2022-12-10T12:33:27;99394.60;;;3.72
70533;BMP180;58088;51.186;17.130;2022-12-10T12:36:18;99397.40;;;3.72
70533;BMP180;58088;51.186;17.130;2022-12-10T12:44:30;99380.80;;;3.76
70533;BMP180;58088;51.186;17.130;2022-12-10T12:47:15;99379.60;;;3.70
70533;BMP180;58088;51.186;17.130;2022-12-10T12:49:48;99383.80;;;3.80
70533;BMP180;58088;51.186;17.130;2022-12-10T12:55:43;99379.00;;;3.80
70533;BMP180;58088;51.186;17.130;2022-12-10T12:58:34;99389.00;;;3.76
70533;BMP180;58088;51.186;17.130;2022-12-10T13:01:32;99385.60;;;3.78
70533;BMP180;58088;51.186;17.130;2022-12-10T13:04:02;99392.60;;;3.74
70533;BMP180;58088;51.186;17.130;2022-12-10T13:06:38;99396.20;;;3.80
70533;BMP180;58088;51.186;17.130;2022-12-10T13:14:34;99380.80;;;3.80
70533;BMP180;58088;51.186;17.130;2022-12-10T13:19:35;99379.60;;;3.80
70533;BMP180;58088;51.186;17.130;2022-12-10T13:22:10;99374.40;;;3.80
70533;BMP180;58088;51.186;17.130;2022-12-10T13:38:38;99396.60;;;3.90
70533;BMP180;58088;51.186;17.130;2022-12-10T13:40:42;99406.60;;;3.90
70533;BMP180;58088;51.186;17.130;2022-12-10T13:46:49;99412.00;;;3.90
70533;BMP180;58088;51.186;17.130;2022-12-10T13:49:20;99403.00;;;3.80
70533;BMP180;58088;51.186;17.130;2022-12-10T13:51:58;99403.20;;;3.80
70533;BMP180;58088;51.186;17.130;2022-12-10T13:54:49;99402.20;;;3.80
70533;BMP180;58088;51.186;17.130;2022-12-10T14:00:29;99407.00;;;3.80
70533;BMP180;58088;51.186;17.130;2022-12-10T14:06:17;99406.60;;;3.80
70533;BMP180;58088;51.186;17.130;2022-12-10T14:09:08;99407.80;;;3.80
70533;BMP180;58088;51.186;17.130;2022-12-10T14:12:28;99406.00;;;3.70
70533;BMP180;58088;51.186;17.130;2022-12-10T14:14:40;99402.60;;;3.68
70533;BMP180;58088;51.186;17.130;2022-12-10T14:17:19;99397.00;;;3.70
70533;BMP180;58088;51.186;17.130;2022-12-10T14:19:50;99403.00;;;3.62
70533;BMP180;58088;51.186;17.130;2022-12-10T14:22:37;99401.00;;;3.60
70533;BMP180;58088;51.186;17.130;2022-12-10T14:25:12;99406.00;;;3.70
70533;BMP180;58088;51.186;17.130;2022-12-10T14:27:39;99410.20;;;3.68
70533;BMP180;58088;51.186;17.130;2022-12-10T14:30:20;99415.40;;;3.70
70533;BMP180;58088;51.186;17.130;2022-12-10T14:32:49;99426.00;;;3.70
70533;BMP180;58088;51.186;17.130;2022-12-10T14:35:22;99424.60;;;3.60
70533;BMP180;58088;51.186;17.130;2022-12-10T14:37:52;99425.80;;;3.60
70533;BMP180;58088;51.186;17.130;2022-12-10T14:40:25;99431.20;;;3.60
70533;BMP180;58088;51.186;17.130;2022-12-10T14:43:19;99428.20;;;3.60
70533;BMP180;58088;51.186;17.130;2022-12-10T14:45:56;99439.60;;;3.60
70533;BMP180;58088;51.186;17.130;2022-12-10T14:48:24;99437.60;;;3.60
70533;BMP180;58088;51.186;17.130;2022-12-10T14:50:51;99433.60;;;3.60
70533;BMP180;58088;51.186;17.130;2022-12-10T14:53:23;99434.60;;;3.60
70533;BMP180;58088;51.186;17.130;2022-12-10T14:55:56;99447.80;;;3.60
70533;BMP180;58088;51.186;17.130;2022-12-10T15:00:58;99444.00;;;3.70
70533;BMP180;58088;51.186;17.130;2022-12-10T15:03:36;99448.00;;;3.66
70533;BMP180;58088;51.186;17.130;2022-12-10T15:06:07;99449.20;;;3.66
70533;BMP180;58088;51.186;17.130;2022-12-10T15:08:35;99447.00;;;3.68
70533;BMP180;58088;51.186;17.130;2022-12-10T15:11:03;99454.60;;;3.60
70533;BMP180;58088;51.186;17.130;2022-12-10T15:13:38;99448.20;;;3.60
70533;BMP180;58088;51.186;17.130;2022-12-10T15:16:06;99456.20;;;3.60
70533;BMP180;58088;51.186;17.130;2022-12-10T15:18:41;99454.20;;;3.60
70533;BMP180;58088;51.186;17.130;2022-12-10T15:21:24;99455.40;;;3.60
70533;BMP180;58088;51.186;17.130;2022-12-10T15:24:21;99469.00;;;3.66
70533;BMP180;58088;51.186;17.130;2022-12-10T15:26:51;99454.00;;;3.60
70533;BMP180;58088;51.186;17.130;2022-12-10T15:31:50;99455.00;;;3.60
70533;BMP180;58088;51.186;17.130;2022-12-10T15:34:37;99455.00;;;3.60
70533;BMP180;58088;51.186;17.130;2022-12-10T15:37:13;99451.80;;;3.70
70533;BMP180;58088;51.186;17.130;2022-12-10T15:40:28;99460.60;;;3.70
70533;BMP180;58088;51.186;17.130;2022-12-10T15:43:30;99458.80;;;3.70
70533;BMP180;58088;51.186;17.130;2022-12-10T15:45:59;99457.20;;;3.72
70533;BMP180;58088;51.186;17.130;2022-12-10T15:48:29;99461.20;;;3.70
70533;BMP180;58088;51.186;17.130;2022-12-10T15:50:57;99460.60;;;3.70
70533;BMP180;58088;51.186;17.130;2022-12-10T15:53:37;99461.20;;;3.70
70533;BMP180;58088;51.186;17.130;2022-12-10T15:56:06;99464.60;;;3.70
70533;BMP180;58088;51.186;17.130;2022-12-10T15:58:33;99467.20;;;3.70
70533;BMP180;58088;51.186;17.130;2022-12-10T16:01:03;99466.40;;;3.70
70533;BMP180;58088;51.186;17.130;2022-12-10T16:03:33;99460.40;;;3.70
70533;BMP180;58088;51.186;17.130;2022-12-10T16:06:00;99462.40;;;3.70
70533;BMP180;58088;51.186;17.130;2022-12-10T16:08:28;99460.60;;;3.70
70533;BMP180;58088;51.186;17.130;2022-12-10T16:11:03;99464.80;;;3.70
70533;BMP180;58088;51.186;17.130;2022-12-10T16:13:36;99457.00;;;3.70
70533;BMP180;58088;51.186;17.130;2022-12-10T16:16:13;99463.20;;;3.70